Terminal Aerodrome Forecast
Issued by NWS

Home | Current Version | Previous Version | Text Only | Print | Product List | Glossary On
Versions: 1 2 3 4 5 6 7 8 9 10 11 12 13 14 15 16 17 18 19 20 21 22 23 24 25 26 27 28 29 30 31 32 33 34 35 36
000
FTUS43 KDMX 271741
TAFFOD
TAF
KFOD 271741Z 2718/2818 11008KT P6SM FEW014
      TEMPO 2718/2719 OVC014
     FM272100 16009KT P6SM SCT025
     FM280700 15014KT P6SM OVC022
     FM281600 15015G22KT P6SM OVC016=

USA.gov is the U.S. government's official web portal to all federal, state and local government web resources and services.